createdAt,value
2022-08-31T00:00:44.092Z,13.75
2022-08-31T00:02:04.639Z,13.95
2022-08-31T00:03:25.354Z,15.27
2022-08-31T00:04:27.917Z,15.05
2022-08-31T00:05:29.689Z,16.60
2022-08-31T00:06:35.281Z,16.33
2022-08-31T00:07:37.396Z,17.00
2022-08-31T00:08:41.978Z,17.92
2022-08-31T00:09:43.602Z,17.38
2022-08-31T00:10:46.659Z,18.90
2022-08-31T00:11:48.960Z,17.45
2022-08-31T00:12:50.865Z,17.98
2022-08-31T00:14:02.212Z,18.08
2022-08-31T00:15:05.788Z,17.40
2022-08-31T00:16:09.451Z,17.83
2022-08-31T00:17:11.241Z,18.00
2022-08-31T00:18:13.013Z,18.48
2022-08-31T00:19:15.220Z,18.52
2022-08-31T00:20:33.227Z,18.98
2022-08-31T00:21:35.816Z,18.83
2022-08-31T00:22:37.524Z,18.58
2022-08-31T00:23:39.108Z,18.77
2022-08-31T00:24:40.791Z,18.42
2022-08-31T00:25:44.941Z,18.17
2022-08-31T00:26:46.667Z,17.42
2022-08-31T00:27:48.292Z,18.35
2022-08-31T00:28:50.701Z,18.13
2022-08-31T00:29:52.372Z,17.85
2022-08-31T00:30:54.049Z,17.98
2022-08-31T00:31:55.640Z,16.65
2022-08-31T00:32:58.579Z,17.70
2022-08-31T00:34:00.405Z,18.02
2022-08-31T00:35:02.065Z,18.38
2022-08-31T00:36:06.132Z,18.65
2022-08-31T00:37:07.712Z,18.48
2022-08-31T00:38:10.847Z,18.63
2022-08-31T00:39:12.429Z,18.90
2022-08-31T00:40:14.278Z,17.88
2022-08-31T00:41:17.906Z,18.13
2022-08-31T00:42:19.543Z,17.92
2022-08-31T00:43:34.443Z,17.58
2022-08-31T00:44:36.040Z,17.67
2022-08-31T00:45:37.698Z,17.13
2022-08-31T00:46:42.399Z,16.55
2022-08-31T00:47:44.010Z,16.67
2022-08-31T00:49:15.728Z,16.20
2022-08-31T00:50:19.031Z,16.02
2022-08-31T00:51:20.680Z,16.95
2022-08-31T00:52:27.592Z,16.45
2022-08-31T00:53:29.456Z,18.13
2022-08-31T00:54:36.815Z,17.52
2022-08-31T00:55:38.489Z,18.70
2022-08-31T00:56:41.733Z,19.48
2022-08-31T00:57:48.269Z,18.23
2022-08-31T00:58:54.673Z,18.35
2022-08-31T00:59:56.722Z,18.27
2022-08-31T01:00:59.885Z,17.77
2022-08-31T01:02:01.843Z,17.83
2022-08-31T01:03:06.756Z,18.42
2022-08-31T01:04:08.471Z,18.20
2022-08-31T01:05:11.170Z,18.98
2022-08-31T01:06:13.923Z,20.13
2022-08-31T01:07:15.796Z,20.70
2022-08-31T01:08:17.834Z,20.70
2022-08-31T01:09:26.270Z,19.58
2022-08-31T01:10:31.956Z,20.30
2022-08-31T01:11:35.565Z,20.35
2022-08-31T01:12:37.785Z,21.88
2022-08-31T01:13:41.890Z,20.52
2022-08-31T01:14:43.660Z,20.25
2022-08-31T01:15:51.299Z,19.02
2022-08-31T01:16:56.457Z,17.70
2022-08-31T01:18:04.715Z,18.15
2022-08-31T01:19:17.454Z,17.90
2022-08-31T01:20:30.276Z,20.00
2022-08-31T01:22:00.721Z,18.52
2022-08-31T01:23:02.247Z,19.42
2022-08-31T01:24:06.268Z,19.65
2022-08-31T01:25:08.144Z,19.25
2022-08-31T01:26:13.455Z,19.50
2022-08-31T01:27:19.897Z,19.90
2022-08-31T01:28:21.489Z,18.85
2022-08-31T01:29:23.163Z,18.42
2022-08-31T01:30:26.619Z,19.45
2022-08-31T01:31:33.669Z,19.65
2022-08-31T01:32:37.413Z,19.80
2022-08-31T01:33:39.543Z,18.92
2022-08-31T01:34:41.777Z,19.33
2022-08-31T01:35:45.224Z,19.83
2022-08-31T01:36:48.245Z,19.23
2022-08-31T01:37:50.119Z,19.50
2022-08-31T01:38:53.500Z,19.63
2022-08-31T01:39:55.425Z,20.58
2022-08-31T01:41:01.914Z,20.08
2022-08-31T01:42:03.965Z,19.88
2022-08-31T01:43:05.562Z,21.10
2022-08-31T01:44:08.051Z,20.45
2022-08-31T01:45:10.738Z,20.90
2022-08-31T01:46:13.384Z,19.92
2022-08-31T01:47:14.969Z,20.98
2022-08-31T01:48:17.527Z,20.67
2022-08-31T01:49:20.697Z,20.90
2022-08-31T01:50:22.381Z,20.50
2022-08-31T01:51:24.064Z,21.02
2022-08-31T01:52:27.734Z,19.92
2022-08-31T01:53:29.650Z,20.65
2022-08-31T01:54:31.677Z,18.80
2022-08-31T01:55:33.280Z,20.00
2022-08-31T01:56:38.590Z,20.77
2022-08-31T01:57:40.228Z,21.50
2022-08-31T01:58:42.069Z,21.35
2022-08-31T01:59:46.664Z,21.90
2022-08-31T02:00:48.377Z,22.42
2022-08-31T02:01:52.914Z,21.75
2022-08-31T02:02:57.486Z,20.77
2022-08-31T02:03:59.232Z,21.98
2022-08-31T02:05:01.076Z,21.10
2022-08-31T02:06:10.467Z,20.17
2022-08-31T02:07:12.074Z,20.27
2022-08-31T02:08:13.724Z,19.88
2022-08-31T02:09:16.040Z,20.70
2022-08-31T02:10:17.698Z,19.63
2022-08-31T02:11:19.374Z,19.48
2022-08-31T02:12:21.030Z,20.75
2022-08-31T02:13:22.676Z,20.33
2022-08-31T02:14:25.029Z,21.17
2022-08-31T02:15:26.631Z,20.55
2022-08-31T02:16:28.366Z,20.02
2022-08-31T02:17:30.428Z,19.27
2022-08-31T02:18:34.210Z,19.23
2022-08-31T02:19:35.887Z,18.15
2022-08-31T02:20:37.531Z,18.92
2022-08-31T02:21:39.385Z,18.75
2022-08-31T02:22:41.913Z,18.30
2022-08-31T02:23:43.601Z,17.45
2022-08-31T02:24:45.241Z,17.60
2022-08-31T02:25:46.909Z,19.60
2022-08-31T02:26:53.066Z,18.33
2022-08-31T02:27:55.418Z,19.00
2022-08-31T02:28:57.081Z,19.30
2022-08-31T02:29:58.693Z,18.73
2022-08-31T02:31:00.307Z,18.90
2022-08-31T02:32:02.026Z,18.95
2022-08-31T02:33:04.054Z,18.85
2022-08-31T02:34:05.711Z,18.38
2022-08-31T02:35:08.483Z,19.75
2022-08-31T02:36:10.108Z,20.00
2022-08-31T02:37:13.250Z,17.70
2022-08-31T02:38:14.881Z,18.40
2022-08-31T02:39:16.727Z,18.85
2022-08-31T02:40:18.524Z,19.75
2022-08-31T02:41:20.327Z,19.48
2022-08-31T02:42:22.263Z,20.02
2022-08-31T02:43:24.691Z,19.30
2022-08-31T02:44:26.880Z,20.17
2022-08-31T02:45:28.523Z,20.92
2022-08-31T02:46:30.179Z,20.42
2022-08-31T02:47:31.917Z,20.02
2022-08-31T02:48:35.351Z,19.48
2022-08-31T02:49:36.979Z,19.50
2022-08-31T02:50:43.666Z,19.55
2022-08-31T02:51:45.253Z,18.67
2022-08-31T02:52:47.724Z,18.63
2022-08-31T02:53:50.795Z,19.38
2022-08-31T02:54:52.386Z,19.95
2022-08-31T02:55:53.963Z,20.27
2022-08-31T02:56:55.608Z,21.25
2022-08-31T02:57:57.301Z,18.95
2022-08-31T02:58:59.198Z,20.08
2022-08-31T03:00:00.900Z,18.38
2022-08-31T03:01:04.584Z,20.45
2022-08-31T03:02:06.268Z,20.20
2022-08-31T03:03:08.005Z,20.60
2022-08-31T03:04:09.678Z,19.10
2022-08-31T03:05:12.848Z,19.77
2022-08-31T03:06:15.085Z,19.45
2022-08-31T03:07:16.780Z,19.33
2022-08-31T03:08:19.459Z,18.52
2022-08-31T03:09:21.376Z,17.40
2022-08-31T03:10:25.333Z,18.38
2022-08-31T03:11:27.340Z,19.80
2022-08-31T03:12:29.080Z,19.35
2022-08-31T03:13:30.764Z,19.00
2022-08-31T03:14:32.362Z,19.42
2022-08-31T03:15:34.019Z,19.35
2022-08-31T03:16:35.631Z,19.58
2022-08-31T03:17:37.246Z,18.67
2022-08-31T03:18:38.851Z,19.27
2022-08-31T03:19:40.441Z,19.58
2022-08-31T03:20:42.034Z,20.50
2022-08-31T03:21:45.557Z,21.20
2022-08-31T03:22:49.257Z,21.48
2022-08-31T03:23:50.830Z,20.20
2022-08-31T03:24:52.411Z,20.60
2022-08-31T03:25:54.007Z,20.83
2022-08-31T03:26:56.020Z,21.58
2022-08-31T03:27:57.620Z,20.55
2022-08-31T03:29:00.115Z,22.48
2022-08-31T03:30:01.756Z,23.33
2022-08-31T03:31:06.916Z,23.55
2022-08-31T03:32:08.578Z,22.73
2022-08-31T03:33:10.242Z,23.27
2022-08-31T03:34:11.844Z,23.13
2022-08-31T03:35:18.284Z,23.75
2022-08-31T03:36:19.887Z,23.75
2022-08-31T03:37:21.975Z,25.38
2022-08-31T03:38:23.559Z,25.00
2022-08-31T03:39:25.197Z,24.38
2022-08-31T03:40:27.001Z,24.95
2022-08-31T03:41:28.624Z,25.80
2022-08-31T03:42:32.083Z,25.02
2022-08-31T03:43:33.956Z,24.85
2022-08-31T03:44:36.734Z,25.65
2022-08-31T03:45:40.140Z,25.25
2022-08-31T03:46:45.438Z,25.67
2022-08-31T03:47:47.126Z,25.77
2022-08-31T03:48:49.933Z,26.40
2022-08-31T03:49:51.508Z,24.67
2022-08-31T03:50:53.144Z,25.13
2022-08-31T03:51:54.730Z,23.98
2022-08-31T03:52:56.309Z,25.85
2022-08-31T03:53:58.004Z,25.27
2022-08-31T03:55:00.100Z,24.77
2022-08-31T03:56:03.800Z,25.00
2022-08-31T03:57:06.535Z,24.48
2022-08-31T03:58:08.790Z,24.33
2022-08-31T03:59:10.466Z,24.75
2022-08-31T04:00:12.645Z,25.33
2022-08-31T04:01:14.531Z,24.92
2022-08-31T04:02:16.302Z,24.30
2022-08-31T04:03:18.074Z,24.27
2022-08-31T04:04:19.812Z,25.30
2022-08-31T04:05:21.439Z,25.65
2022-08-31T04:06:23.028Z,25.17
2022-08-31T04:07:24.660Z,25.30
2022-08-31T04:08:26.442Z,26.80
2022-08-31T04:09:28.071Z,25.77
2022-08-31T04:10:29.677Z,26.98
2022-08-31T04:11:45.077Z,26.85
2022-08-31T04:12:47.316Z,26.45
2022-08-31T04:13:49.267Z,27.63
2022-08-31T04:14:50.895Z,29.25
2022-08-31T04:15:52.590Z,27.42
2022-08-31T04:16:54.219Z,27.00
2022-08-31T04:17:57.210Z,27.25
2022-08-31T04:18:59.292Z,26.75
2022-08-31T04:20:00.945Z,26.25
2022-08-31T04:21:03.485Z,26.92
2022-08-31T04:22:05.084Z,26.92
2022-08-31T04:23:06.883Z,28.05
2022-08-31T04:24:08.464Z,27.02
2022-08-31T04:25:10.458Z,27.05
2022-08-31T04:26:20.583Z,26.88
2022-08-31T04:27:22.205Z,26.23
2022-08-31T04:28:25.047Z,27.55
2022-08-31T04:29:26.995Z,25.65
2022-08-31T04:30:28.655Z,25.67
2022-08-31T04:31:31.372Z,25.98
2022-08-31T04:32:33.731Z,27.33
2022-08-31T04:33:39.546Z,26.13
2022-08-31T04:34:41.115Z,25.85
2022-08-31T04:35:43.341Z,26.50
2022-08-31T04:36:45.918Z,25.85
2022-08-31T04:37:48.132Z,26.60
2022-08-31T04:38:53.062Z,26.67
2022-08-31T04:39:57.013Z,27.30
2022-08-31T04:41:12.368Z,25.10
2022-08-31T04:42:13.939Z,27.23
2022-08-31T04:43:15.580Z,25.63
2022-08-31T04:44:19.913Z,27.17
2022-08-31T04:45:22.155Z,27.08
2022-08-31T04:46:23.956Z,26.08
2022-08-31T04:47:25.759Z,26.25
2022-08-31T04:48:27.387Z,26.35
2022-08-31T04:49:28.943Z,27.30
2022-08-31T04:50:31.207Z,26.30
2022-08-31T04:51:35.569Z,26.35
2022-08-31T04:52:37.727Z,26.88
2022-08-31T04:53:40.580Z,26.67
2022-08-31T04:54:42.289Z,26.63
2022-08-31T04:55:44.115Z,27.17
2022-08-31T04:56:46.348Z,25.27
2022-08-31T04:57:47.967Z,25.02
2022-08-31T04:59:01.455Z,24.08
2022-08-31T05:00:05.650Z,23.63
2022-08-31T05:01:11.742Z,23.70
2022-08-31T05:02:13.465Z,23.67
2022-08-31T05:03:15.196Z,22.73
2022-08-31T05:04:16.821Z,22.88
2022-08-31T05:05:18.527Z,24.75
2022-08-31T05:06:23.362Z,24.75
2022-08-31T05:07:25.738Z,26.05
2022-08-31T05:08:27.910Z,25.58
2022-08-31T05:09:29.605Z,25.70
2022-08-31T05:10:31.845Z,25.95
2022-08-31T05:11:34.553Z,26.98
2022-08-31T05:12:36.158Z,28.23
2022-08-31T05:13:37.949Z,28.02
2022-08-31T05:14:39.609Z,26.65
2022-08-31T05:15:43.673Z,28.10
2022-08-31T05:16:45.978Z,26.45
2022-08-31T05:17:47.568Z,26.58
2022-08-31T05:18:51.270Z,25.58
2022-08-31T05:19:53.252Z,24.98
2022-08-31T05:20:54.851Z,24.67
2022-08-31T05:21:56.428Z,26.33
2022-08-31T05:22:58.484Z,25.20
2022-08-31T05:24:06.249Z,24.05
2022-08-31T05:25:09.344Z,23.50
2022-08-31T05:26:18.224Z,24.42
2022-08-31T05:27:19.919Z,24.35
2022-08-31T05:28:23.669Z,25.15
2022-08-31T05:29:26.092Z,25.40
2022-08-31T05:30:27.979Z,25.08
2022-08-31T05:31:30.962Z,25.40
2022-08-31T05:32:32.673Z,24.80
2022-08-31T05:33:38.117Z,25.17
2022-08-31T05:34:41.550Z,24.23
2022-08-31T05:35:44.756Z,27.52
2022-08-31T05:36:50.698Z,25.85
2022-08-31T05:37:54.748Z,24.92
2022-08-31T05:39:00.801Z,24.58
2022-08-31T05:40:03.050Z,24.27
2022-08-31T05:41:06.234Z,25.33
2022-08-31T05:42:07.962Z,23.38
2022-08-31T05:43:09.685Z,23.75
2022-08-31T05:44:12.346Z,24.13
2022-08-31T05:45:13.990Z,23.85
2022-08-31T05:46:17.043Z,24.65
2022-08-31T05:47:18.680Z,25.00
2022-08-31T05:48:20.655Z,24.58
2022-08-31T05:49:28.152Z,26.48
2022-08-31T05:50:29.885Z,25.73
2022-08-31T05:51:34.937Z,25.50
2022-08-31T05:52:39.571Z,25.65
2022-08-31T05:53:41.919Z,24.93
2022-08-31T05:54:43.710Z,25.27
2022-08-31T05:55:45.333Z,24.70
2022-08-31T05:56:46.890Z,23.40
2022-08-31T05:57:49.148Z,24.33
2022-08-31T05:58:51.200Z,23.70
2022-08-31T05:59:52.830Z,24.40
2022-08-31T06:00:54.496Z,24.10
2022-08-31T06:01:57.121Z,24.58
2022-08-31T06:02:59.052Z,22.77
2022-08-31T06:04:01.653Z,23.52
2022-08-31T06:05:03.422Z,23.48
2022-08-31T06:06:05.572Z,24.65
2022-08-31T06:07:07.472Z,24.75
2022-08-31T06:08:13.091Z,24.00
2022-08-31T06:09:16.815Z,24.40
2022-08-31T06:10:19.059Z,23.58
2022-08-31T06:11:24.214Z,24.95
2022-08-31T06:12:26.364Z,23.98
2022-08-31T06:13:27.929Z,23.85
2022-08-31T06:14:29.563Z,23.02
2022-08-31T06:15:31.174Z,24.35
2022-08-31T06:16:33.536Z,23.25
2022-08-31T06:17:36.228Z,22.05
2022-08-31T06:18:50.727Z,23.85
2022-08-31T06:19:52.458Z,22.42
2022-08-31T06:21:09.114Z,23.95
2022-08-31T06:22:10.824Z,23.10
2022-08-31T06:23:12.426Z,22.10
2022-08-31T06:24:14.839Z,24.15
2022-08-31T06:25:19.495Z,22.85
2022-08-31T06:26:22.906Z,22.55
2022-08-31T06:27:24.971Z,22.83
2022-08-31T06:28:26.764Z,23.20
2022-08-31T06:29:31.558Z,25.08
2022-08-31T06:30:52.959Z,26.65
2022-08-31T06:31:57.024Z,24.83
2022-08-31T06:32:59.057Z,26.83
2022-08-31T06:34:02.403Z,26.98
2022-08-31T06:35:04.230Z,24.20
2022-08-31T06:36:14.296Z,24.17
2022-08-31T06:37:18.507Z,25.45
2022-08-31T06:38:20.941Z,25.75
2022-08-31T06:39:23.496Z,25.92
2022-08-31T06:40:26.769Z,26.02
2022-08-31T06:41:39.993Z,26.33
2022-08-31T06:42:41.595Z,24.58
2022-08-31T06:43:44.533Z,25.42
2022-08-31T06:44:46.145Z,24.92
2022-08-31T06:45:47.776Z,25.70
2022-08-31T06:46:50.628Z,24.08
2022-08-31T06:47:52.407Z,24.02
2022-08-31T06:48:55.917Z,24.83
2022-08-31T06:49:57.619Z,24.08
2022-08-31T06:50:59.578Z,22.30
2022-08-31T06:52:01.213Z,21.88
2022-08-31T06:53:02.817Z,21.77
2022-08-31T06:54:21.754Z,22.23
2022-08-31T06:55:28.930Z,21.65
2022-08-31T06:56:30.749Z,22.52
2022-08-31T06:57:32.355Z,21.45
2022-08-31T06:58:37.560Z,21.30
2022-08-31T06:59:39.127Z,21.00
2022-08-31T07:00:41.251Z,20.95
2022-08-31T07:01:43.007Z,21.67
2022-08-31T07:02:44.909Z,21.00
2022-08-31T07:03:57.060Z,20.73
2022-08-31T07:04:58.616Z,21.05
2022-08-31T07:06:16.800Z,20.23
2022-08-31T07:07:18.388Z,19.90
2022-08-31T07:08:21.393Z,19.00
2022-08-31T07:09:23.210Z,21.98
2022-08-31T07:10:24.803Z,22.13
2022-08-31T07:11:41.019Z,21.20
2022-08-31T07:12:45.764Z,21.65
2022-08-31T07:13:48.345Z,21.20
2022-08-31T07:14:52.929Z,21.25
2022-08-31T07:16:09.191Z,21.05
2022-08-31T07:17:10.824Z,21.13
2022-08-31T07:18:12.417Z,20.23
2022-08-31T07:19:15.338Z,20.50
2022-08-31T07:20:17.006Z,18.80
2022-08-31T07:21:29.349Z,18.92
2022-08-31T07:22:30.955Z,19.98
2022-08-31T07:23:32.794Z,18.33
2022-08-31T07:24:35.320Z,18.83
2022-08-31T07:25:39.253Z,19.58
2022-08-31T07:26:46.896Z,19.17
2022-08-31T07:27:50.515Z,18.25
2022-08-31T07:28:54.322Z,19.17
2022-08-31T07:29:55.982Z,19.17
2022-08-31T07:30:57.599Z,18.83
2022-08-31T07:31:59.852Z,18.90
2022-08-31T07:33:06.787Z,19.13
2022-08-31T07:34:10.665Z,18.65
2022-08-31T07:35:12.247Z,18.92
2022-08-31T07:36:15.882Z,17.73
2022-08-31T07:37:36.108Z,18.17
2022-08-31T07:38:57.088Z,16.85
2022-08-31T07:40:17.533Z,18.48
2022-08-31T07:41:37.741Z,17.67
2022-08-31T07:42:44.528Z,17.33
2022-08-31T07:43:46.120Z,16.45
2022-08-31T07:44:53.594Z,15.70
2022-08-31T07:45:55.550Z,15.02
2022-08-31T07:46:57.578Z,15.65
2022-08-31T07:48:00.421Z,15.20
2022-08-31T07:49:03.026Z,16.00
2022-08-31T07:50:04.911Z,15.18
2022-08-31T07:51:06.508Z,15.40
2022-08-31T07:52:08.855Z,15.70
2022-08-31T07:53:11.545Z,15.30
2022-08-31T07:54:14.411Z,14.73
2022-08-31T07:55:18.047Z,14.82
2022-08-31T07:56:21.804Z,15.07
2022-08-31T07:57:30.160Z,14.88
2022-08-31T07:58:31.794Z,15.30
2022-08-31T07:59:34.432Z,14.43
2022-08-31T08:00:43.314Z,15.23
2022-08-31T08:01:45.770Z,15.25
2022-08-31T08:02:52.735Z,15.43
2022-08-31T08:03:54.682Z,14.75
2022-08-31T08:04:56.351Z,14.85
2022-08-31T08:05:58.248Z,15.52
2022-08-31T08:07:05.970Z,14.15
2022-08-31T08:08:13.893Z,14.05
2022-08-31T08:09:24.473Z,14.30
2022-08-31T08:10:30.022Z,13.55
2022-08-31T08:11:32.354Z,14.77
2022-08-31T08:12:36.335Z,14.68
2022-08-31T08:13:38.978Z,15.20
2022-08-31T08:14:41.948Z,14.23
2022-08-31T08:15:43.547Z,14.32
2022-08-31T08:16:45.119Z,13.25
2022-08-31T08:17:46.688Z,13.98
2022-08-31T08:18:48.325Z,13.13
2022-08-31T08:19:49.948Z,13.45
2022-08-31T08:20:52.792Z,13.32
2022-08-31T08:21:55.597Z,14.13
2022-08-31T08:22:57.824Z,14.05
2022-08-31T08:24:00.042Z,13.75
2022-08-31T08:25:06.986Z,13.75
2022-08-31T08:26:21.220Z,13.70
2022-08-31T08:27:23.870Z,14.05
2022-08-31T08:28:45.964Z,13.05
2022-08-31T08:29:48.530Z,13.75
2022-08-31T08:30:54.438Z,12.70
2022-08-31T08:31:56.403Z,13.35
2022-08-31T08:33:03.906Z,13.65
2022-08-31T08:34:05.644Z,13.32
2022-08-31T08:35:08.471Z,13.13
2022-08-31T08:36:10.743Z,12.63
2022-08-31T08:37:13.481Z,12.65
2022-08-31T08:38:15.046Z,12.65
2022-08-31T08:39:18.308Z,14.18
2022-08-31T08:40:42.629Z,13.30
2022-08-31T08:41:47.184Z,13.20
2022-08-31T08:42:48.764Z,14.00
2022-08-31T08:43:53.261Z,12.82
2022-08-31T08:44:59.059Z,13.48
2022-08-31T08:46:15.221Z,12.82
2022-08-31T08:47:37.582Z,14.05
2022-08-31T08:48:43.726Z,13.50
2022-08-31T08:49:53.970Z,13.77
2022-08-31T08:50:56.702Z,12.68
2022-08-31T08:52:11.891Z,13.00
2022-08-31T08:53:15.258Z,12.90
2022-08-31T08:54:26.286Z,13.18
2022-08-31T08:55:35.653Z,12.85
2022-08-31T08:56:42.096Z,13.40
2022-08-31T08:57:46.842Z,13.48
2022-08-31T08:58:48.544Z,12.63
2022-08-31T08:59:53.974Z,12.75
2022-08-31T09:00:57.287Z,11.82
2022-08-31T09:02:07.031Z,11.90
2022-08-31T09:03:30.883Z,13.30
2022-08-31T09:05:42.938Z,12.63
2022-08-31T09:06:59.533Z,13.00
2022-08-31T09:08:25.628Z,13.88
2022-08-31T09:10:08.350Z,13.65
2022-08-31T09:11:20.249Z,12.60
2022-08-31T09:12:42.906Z,13.18
2022-08-31T09:13:49.101Z,13.30
2022-08-31T09:15:08.051Z,13.63
2022-08-31T09:16:09.702Z,13.52
2022-08-31T09:17:42.513Z,13.95
2022-08-31T09:18:47.084Z,13.15
2022-08-31T09:20:05.681Z,13.18
2022-08-31T09:21:21.912Z,13.65
2022-08-31T09:22:23.500Z,13.13
2022-08-31T09:23:28.065Z,12.75
2022-08-31T09:24:32.708Z,13.70
2022-08-31T09:25:52.171Z,13.48
2022-08-31T09:27:05.085Z,13.35
2022-08-31T09:28:08.748Z,13.18
2022-08-31T09:29:20.857Z,13.63
2022-08-31T09:30:45.617Z,12.80
2022-08-31T09:31:47.571Z,13.38
2022-08-31T09:32:57.429Z,12.50
2022-08-31T09:33:59.046Z,13.15
2022-08-31T09:35:09.265Z,12.40
2022-08-31T09:36:15.372Z,12.70
2022-08-31T09:37:23.456Z,12.80
2022-08-31T09:38:28.102Z,13.40
2022-08-31T09:39:36.941Z,13.65
2022-08-31T09:40:47.891Z,13.32
2022-08-31T09:41:50.822Z,14.73
2022-08-31T09:43:08.445Z,12.93
2022-08-31T09:44:29.465Z,14.30
2022-08-31T09:45:37.782Z,15.98
2022-08-31T09:46:56.667Z,15.30
2022-08-31T09:48:01.280Z,15.10
2022-08-31T09:49:03.237Z,15.82
2022-08-31T09:50:09.396Z,15.70
2022-08-31T09:51:21.616Z,16.02
2022-08-31T09:52:54.167Z,15.52
2022-08-31T09:54:23.125Z,15.35
2022-08-31T09:55:28.076Z,15.57
2022-08-31T09:56:29.828Z,14.88
2022-08-31T09:57:43.442Z,15.13
2022-08-31T09:58:52.599Z,15.73
2022-08-31T09:59:55.947Z,14.10
2022-08-31T10:00:58.078Z,14.88
2022-08-31T10:02:01.193Z,14.50
2022-08-31T10:03:22.555Z,16.70
2022-08-31T10:04:27.744Z,15.00
2022-08-31T10:05:44.548Z,15.18
2022-08-31T10:07:28.781Z,15.13
2022-08-31T10:08:53.616Z,16.17
2022-08-31T10:10:03.580Z,15.25
2022-08-31T10:11:11.527Z,13.52
2022-08-31T10:12:21.426Z,14.40
2022-08-31T10:13:34.599Z,15.30
2022-08-31T10:14:41.828Z,15.98
2022-08-31T10:16:08.329Z,14.90
2022-08-31T10:17:19.113Z,15.38
2022-08-31T10:18:30.527Z,13.82
2022-08-31T10:19:44.853Z,13.80
2022-08-31T10:20:56.008Z,14.23
2022-08-31T10:22:03.511Z,14.40
2022-08-31T10:23:14.539Z,14.55
2022-08-31T10:24:48.424Z,14.57
2022-08-31T10:26:04.563Z,13.25
2022-08-31T10:27:23.793Z,14.05
2022-08-31T10:28:32.120Z,14.75
2022-08-31T10:29:46.098Z,13.18
2022-08-31T10:30:59.690Z,14.27
2022-08-31T10:32:09.208Z,13.60
2022-08-31T10:33:16.317Z,13.93
2022-08-31T10:34:41.381Z,12.93
2022-08-31T10:36:00.665Z,14.70
2022-08-31T10:37:38.329Z,12.77
2022-08-31T10:38:47.583Z,12.90
2022-08-31T10:39:54.097Z,12.70
2022-08-31T10:41:16.831Z,12.90
2022-08-31T10:42:37.331Z,10.98
2022-08-31T10:44:17.806Z,10.60
2022-08-31T10:45:24.080Z,11.05
2022-08-31T10:46:26.080Z,10.55
2022-08-31T10:47:33.250Z,10.25
2022-08-31T10:48:37.280Z,11.00
2022-08-31T10:49:40.125Z,11.60
2022-08-31T10:50:49.040Z,11.18
2022-08-31T10:51:55.924Z,11.50
2022-08-31T10:53:03.365Z,11.55
2022-08-31T10:54:24.774Z,10.38
2022-08-31T10:55:29.232Z,11.93
2022-08-31T10:57:05.890Z,11.57
2022-08-31T10:58:07.437Z,11.95
2022-08-31T10:59:19.922Z,11.93
2022-08-31T11:00:45.792Z,12.23
2022-08-31T11:02:13.331Z,11.57
2022-08-31T11:03:36.627Z,12.52
2022-08-31T11:04:58.333Z,11.95
2022-08-31T11:06:30.062Z,11.48
2022-08-31T11:07:43.919Z,10.80
2022-08-31T11:09:02.489Z,12.07
2022-08-31T11:10:22.237Z,11.02
2022-08-31T11:11:26.817Z,11.48
2022-08-31T11:12:40.953Z,11.40
2022-08-31T11:14:00.263Z,11.15
2022-08-31T11:15:39.326Z,11.00
2022-08-31T11:16:50.168Z,10.38
2022-08-31T11:18:14.810Z,10.25
2022-08-31T11:19:31.300Z,10.40
2022-08-31T11:21:12.678Z,10.13
2022-08-31T11:22:30.938Z,10.32
2022-08-31T11:23:58.957Z,11.18
2022-08-31T11:25:04.021Z,10.10
2022-08-31T11:26:08.314Z,9.60
2022-08-31T11:27:33.586Z,9.77
2022-08-31T11:28:48.291Z,8.98
2022-08-31T11:29:56.756Z,9.27
2022-08-31T11:31:01.659Z,9.95
2022-08-31T11:32:26.103Z,10.52
2022-08-31T11:33:31.242Z,10.88
2022-08-31T11:34:47.000Z,10.63
2022-08-31T11:35:49.413Z,11.13
2022-08-31T11:36:57.669Z,10.57
2022-08-31T11:38:00.646Z,9.95
2022-08-31T11:39:03.171Z,9.43
2022-08-31T11:40:11.037Z,10.13
2022-08-31T11:41:31.810Z,9.95
2022-08-31T11:42:38.029Z,9.85
2022-08-31T11:43:44.682Z,10.13
2022-08-31T11:45:06.835Z,10.50
2022-08-31T11:46:27.246Z,10.38
2022-08-31T11:47:28.962Z,10.27
2022-08-31T11:48:53.563Z,10.23
2022-08-31T11:50:05.437Z,10.60
2022-08-31T11:51:07.578Z,10.07
2022-08-31T11:52:43.247Z,10.48
2022-08-31T11:53:49.391Z,9.82
2022-08-31T11:54:50.926Z,10.18
2022-08-31T11:56:00.499Z,10.45
2022-08-31T11:57:03.339Z,10.15
2022-08-31T11:58:20.791Z,10.68
2022-08-31T11:59:35.265Z,9.75
2022-08-31T12:01:11.637Z,10.55
2022-08-31T12:02:19.348Z,9.25
2022-08-31T12:03:45.734Z,8.40
2022-08-31T12:05:00.405Z,9.25
2022-08-31T12:06:02.361Z,8.90
2022-08-31T12:07:04.644Z,9.10
2022-08-31T12:08:11.657Z,9.38
2022-08-31T12:09:44.260Z,9.38
2022-08-31T12:11:13.822Z,9.02
2022-08-31T12:12:42.383Z,8.80
2022-08-31T12:14:02.353Z,9.32
2022-08-31T12:15:28.665Z,10.05
2022-08-31T12:16:57.835Z,8.57
2022-08-31T12:18:38.425Z,9.70
2022-08-31T12:20:02.255Z,9.68
2022-08-31T12:21:36.096Z,9.20
2022-08-31T12:23:30.282Z,8.68
2022-08-31T12:25:15.208Z,8.68
2022-08-31T12:26:43.028Z,9.10
2022-08-31T12:28:03.902Z,9.45
2022-08-31T12:29:20.115Z,9.82
2022-08-31T12:30:24.548Z,9.52
2022-08-31T12:31:26.678Z,9.40
2022-08-31T12:32:40.440Z,9.52
2022-08-31T12:34:00.683Z,9.65
2022-08-31T12:35:18.499Z,9.40
2022-08-31T12:36:28.236Z,9.70
2022-08-31T12:37:37.902Z,9.15
2022-08-31T12:38:39.558Z,9.00
2022-08-31T12:39:41.118Z,9.10
2022-08-31T12:40:51.171Z,9.45
2022-08-31T12:42:00.296Z,9.15
2022-08-31T12:43:15.479Z,9.40
2022-08-31T12:44:22.379Z,9.90
2022-08-31T12:45:57.314Z,10.40
2022-08-31T12:47:03.447Z,10.75
2022-08-31T12:48:17.312Z,9.75
2022-08-31T12:49:56.433Z,10.00
2022-08-31T12:51:23.457Z,8.95
2022-08-31T12:52:34.150Z,9.68
2022-08-31T12:53:50.615Z,9.10
2022-08-31T12:55:33.332Z,9.55
2022-08-31T12:56:46.775Z,8.93
2022-08-31T12:57:57.139Z,9.25
2022-08-31T12:59:07.486Z,9.43
2022-08-31T13:00:15.746Z,9.43
2022-08-31T13:01:25.897Z,9.02
2022-08-31T13:02:29.868Z,9.30
2022-08-31T13:03:32.630Z,9.10
2022-08-31T13:04:34.306Z,8.55
2022-08-31T13:05:38.388Z,8.45
2022-08-31T13:06:42.021Z,8.57
2022-08-31T13:07:44.737Z,9.55
2022-08-31T13:08:49.987Z,9.02
2022-08-31T13:10:16.528Z,8.80
2022-08-31T13:11:34.908Z,9.57
2022-08-31T13:12:54.079Z,9.05
2022-08-31T13:14:13.803Z,9.05
2022-08-31T13:15:43.889Z,9.55
2022-08-31T13:17:07.606Z,9.50
2022-08-31T13:18:16.369Z,9.15
2022-08-31T13:19:25.720Z,9.48
2022-08-31T13:20:35.525Z,8.85
2022-08-31T13:21:37.228Z,8.55
2022-08-31T13:22:41.770Z,8.43
2022-08-31T13:23:44.898Z,9.10
2022-08-31T13:24:53.841Z,9.00
2022-08-31T13:26:22.910Z,9.85
2022-08-31T13:27:27.638Z,9.75
2022-08-31T13:28:30.533Z,9.68
2022-08-31T13:29:41.108Z,9.70
2022-08-31T13:30:55.398Z,9.70
2022-08-31T13:31:59.862Z,9.25
2022-08-31T13:33:11.783Z,9.07
2022-08-31T13:34:19.193Z,9.38
2022-08-31T13:35:25.715Z,9.05
2022-08-31T13:36:37.078Z,8.40
2022-08-31T13:38:06.022Z,9.15
2022-08-31T13:39:24.406Z,8.82
2022-08-31T13:40:27.925Z,9.15
2022-08-31T13:41:40.680Z,8.38
2022-08-31T13:42:45.719Z,8.38
2022-08-31T13:43:53.898Z,8.68
2022-08-31T13:45:00.112Z,8.77
2022-08-31T13:46:02.465Z,8.75
2022-08-31T13:47:12.106Z,8.77
2022-08-31T13:48:20.448Z,9.02
2022-08-31T13:49:35.961Z,8.95
2022-08-31T13:50:52.505Z,8.77
2022-08-31T13:51:54.764Z,8.68
2022-08-31T13:53:26.344Z,10.23
2022-08-31T13:54:29.256Z,9.30
2022-08-31T13:55:37.987Z,8.77
2022-08-31T13:56:54.878Z,8.68
2022-08-31T13:57:59.753Z,8.73
2022-08-31T13:59:25.171Z,8.55
2022-08-31T14:00:58.160Z,7.65
2022-08-31T14:02:30.961Z,8.93
2022-08-31T14:03:53.628Z,8.40
2022-08-31T14:05:01.617Z,8.18
2022-08-31T14:06:24.082Z,8.60
2022-08-31T14:07:43.941Z,8.30
2022-08-31T14:08:50.110Z,7.40
2022-08-31T14:09:57.054Z,7.18
2022-08-31T14:10:58.698Z,8.35
2022-08-31T14:12:04.453Z,7.93
2022-08-31T14:13:15.040Z,7.30
2022-08-31T14:14:16.659Z,7.80
2022-08-31T14:15:50.400Z,8.30
2022-08-31T14:16:57.572Z,7.82
2022-08-31T14:19:33.648Z,7.40
2022-08-31T14:20:36.941Z,7.13
2022-08-31T14:21:42.132Z,7.78
2022-08-31T14:22:45.570Z,8.38
2022-08-31T14:24:01.391Z,8.05
2022-08-31T14:25:03.644Z,7.90
2022-08-31T14:26:18.170Z,7.90
2022-08-31T14:27:19.749Z,9.48
2022-08-31T14:28:33.765Z,8.30
2022-08-31T14:29:40.445Z,7.85
2022-08-31T14:30:42.152Z,8.38
2022-08-31T14:31:46.888Z,7.32
2022-08-31T14:32:48.527Z,6.90
2022-08-31T14:34:02.358Z,6.63